createdAt,value
2019-04-25T00:00:02.015Z,83.10
2019-04-25T00:02:39.328Z,82.20
2019-04-25T00:05:11.772Z,81.70
2019-04-25T00:07:43.044Z,81.80
2019-04-25T00:10:14.978Z,81.80
2019-04-25T00:12:45.706Z,81.50
2019-04-25T00:15:15.959Z,81.50
2019-04-25T00:17:46.252Z,81.70
2019-04-25T00:20:16.635Z,81.90
2019-04-25T00:22:53.361Z,82.30
2019-04-25T00:25:37.474Z,81.90
2019-04-25T00:28:09.039Z,81.90
2019-04-25T00:30:40.301Z,82.20
2019-04-25T00:33:11.623Z,82.70
2019-04-25T00:35:43.476Z,82.70
2019-04-25T00:38:13.811Z,82.80
2019-04-25T00:40:44.720Z,82.90
2019-04-25T00:43:14.841Z,83.10
2019-04-25T00:45:45.719Z,83.10
2019-04-25T00:48:15.950Z,82.80
2019-04-25T00:50:49.000Z,82.00
2019-04-25T00:53:19.134Z,82.30
2019-04-25T00:55:49.396Z,81.90
2019-04-25T00:58:29.532Z,82.10
2019-04-25T01:01:13.749Z,82.10
2019-04-25T01:03:44.583Z,82.00
2019-04-25T01:06:15.565Z,81.80
2019-04-25T01:08:45.876Z,81.50
2019-04-25T01:11:16.044Z,81.30
2019-04-25T01:13:46.243Z,81.60
2019-04-25T01:16:16.428Z,81.50
2019-04-25T01:18:46.847Z,81.80
2019-04-25T01:21:17.046Z,81.60
2019-04-25T01:23:47.308Z,81.30
2019-04-25T01:26:17.502Z,81.70
2019-04-25T01:28:47.697Z,82.20
2019-04-25T01:31:20.444Z,82.20
2019-04-25T01:33:50.631Z,82.40
2019-04-25T01:36:38.794Z,82.40
2019-04-25T01:39:30.358Z,82.00
2019-04-25T01:42:08.342Z,81.80
2019-04-25T01:44:41.918Z,82.00
2019-04-25T01:47:14.117Z,82.00
2019-04-25T01:49:44.346Z,82.70
2019-04-25T01:52:14.567Z,82.20
2019-04-25T01:54:44.744Z,82.60
2019-04-25T01:57:14.871Z,82.70
2019-04-25T01:59:45.085Z,82.70
2019-04-25T02:02:19.689Z,83.00
2019-04-25T02:04:51.300Z,82.70
2019-04-25T02:07:21.569Z,83.60
2019-04-25T02:09:54.805Z,83.10
2019-04-25T02:12:36.674Z,83.30
2019-04-25T02:15:07.367Z,83.50
2019-04-25T02:17:37.589Z,83.60
2019-04-25T02:20:08.041Z,83.90
2019-04-25T02:22:38.222Z,84.20
2019-04-25T02:25:08.827Z,84.20
2019-04-25T02:27:39.029Z,84.90
2019-04-25T02:30:11.016Z,84.70
2019-04-25T02:32:41.187Z,85.30
2019-04-25T02:35:11.526Z,84.70
2019-04-25T02:37:41.832Z,85.00
2019-04-25T02:40:14.159Z,84.70
2019-04-25T02:42:44.531Z,84.60
2019-04-25T02:45:31.118Z,85.10
2019-04-25T02:48:20.323Z,84.80
2019-04-25T02:51:15.529Z,84.60
2019-04-25T02:53:47.330Z,85.10
2019-04-25T02:56:30.333Z,85.10
2019-04-25T02:58:49.758Z,84.90
2019-04-25T03:01:23.589Z,85.20
2019-04-25T03:03:54.352Z,85.70
2019-04-25T03:06:25.020Z,84.80
2019-04-25T03:08:55.290Z,84.70
2019-04-25T03:11:25.512Z,84.50
2019-04-25T03:13:55.714Z,84.90
2019-04-25T03:16:26.001Z,84.80
2019-04-25T03:19:06.027Z,84.60
2019-04-25T03:21:36.520Z,84.90
2019-04-25T03:24:10.207Z,84.90
2019-04-25T03:26:40.709Z,84.80
2019-04-25T03:29:10.607Z,85.10
2019-04-25T03:31:40.842Z,85.00
2019-04-25T03:34:14.743Z,85.70
2019-04-25T03:36:43.851Z,85.30
2019-04-25T03:39:16.274Z,85.30
2019-04-25T03:41:46.049Z,85.30
2019-04-25T03:44:16.292Z,85.40
2019-04-25T03:46:46.549Z,85.60
2019-04-25T03:49:16.745Z,85.30
2019-04-25T03:51:46.946Z,85.80
2019-04-25T03:54:17.247Z,85.50
2019-04-25T03:56:53.603Z,85.60
2019-04-25T03:59:19.383Z,85.40
2019-04-25T04:01:49.721Z,85.50
2019-04-25T04:04:19.925Z,85.70
2019-04-25T04:06:50.080Z,85.70
2019-04-25T04:09:20.293Z,85.90
2019-04-25T04:11:50.422Z,85.60
2019-04-25T04:14:20.494Z,86.00
2019-04-25T04:17:15.092Z,86.10
2019-04-25T04:19:53.706Z,86.10
2019-04-25T04:22:30.805Z,86.10
2019-04-25T04:25:03.681Z,86.30
2019-04-25T04:27:35.163Z,86.10
2019-04-25T04:30:06.472Z,86.20
2019-04-25T04:32:36.652Z,86.80
2019-04-25T04:35:07.301Z,87.70
2019-04-25T04:37:37.646Z,86.60
2019-04-25T04:40:08.078Z,86.80
2019-04-25T04:42:38.351Z,87.10
2019-04-25T04:45:10.107Z,87.30
2019-04-25T04:47:40.337Z,88.60
2019-04-25T04:50:10.765Z,88.80
2019-04-25T04:52:40.977Z,89.80
2019-04-25T04:55:12.576Z,90.10
2019-04-25T04:57:44.848Z,90.40
2019-04-25T05:00:15.623Z,90.60
2019-04-25T05:03:04.469Z,90.80
2019-04-25T05:05:44.821Z,91.00
2019-04-25T05:08:20.219Z,91.40
2019-04-25T05:10:50.911Z,91.50
2019-04-25T05:13:21.041Z,91.60
2019-04-25T05:15:51.215Z,91.70
2019-04-25T05:18:34.539Z,91.50
2019-04-25T05:20:54.302Z,91.50
2019-04-25T05:23:24.884Z,91.40
2019-04-25T05:25:55.773Z,91.60
2019-04-25T05:28:25.872Z,91.30
2019-04-25T05:31:17.273Z,91.60
2019-04-25T05:33:48.385Z,91.70
2019-04-25T05:36:18.674Z,92.00
2019-04-25T05:38:49.630Z,92.00
2019-04-25T05:41:33.764Z,91.90
2019-04-25T05:44:04.524Z,91.90
2019-04-25T05:46:34.765Z,91.90
2019-04-25T05:49:05.221Z,91.80
2019-04-25T05:51:35.527Z,91.60
2019-04-25T05:54:06.923Z,91.60
2019-04-25T05:56:37.115Z,91.20
2019-04-25T05:59:07.420Z,91.00
2019-04-25T06:01:37.621Z,90.80
2019-04-25T06:04:07.804Z,90.50
2019-04-25T06:06:38.105Z,90.20
2019-04-25T06:09:35.697Z,90.10
2019-04-25T06:12:24.533Z,89.40
2019-04-25T06:14:54.863Z,89.10
2019-04-25T06:17:39.859Z,88.70
2019-04-25T06:20:11.273Z,88.10
2019-04-25T06:22:53.812Z,88.10
2019-04-25T06:25:32.147Z,88.10
2019-04-25T06:27:59.843Z,88.30
2019-04-25T06:30:31.674Z,88.70
2019-04-25T06:33:03.329Z,88.90
2019-04-25T06:35:35.927Z,88.30
2019-04-25T06:38:06.075Z,87.60
2019-04-25T06:40:36.193Z,86.90
2019-04-25T06:43:06.400Z,86.40
2019-04-25T06:45:50.082Z,85.10
2019-04-25T06:48:33.866Z,85.10
2019-04-25T06:51:05.262Z,85.10
2019-04-25T06:53:35.472Z,84.70
2019-04-25T06:56:06.034Z,83.40
2019-04-25T06:58:36.386Z,82.40
2019-04-25T07:01:06.626Z,82.60
2019-04-25T07:03:36.832Z,81.90
2019-04-25T07:06:07.026Z,81.10
2019-04-25T07:08:37.245Z,80.70
2019-04-25T07:11:07.697Z,81.80
2019-04-25T07:13:38.816Z,80.60
2019-04-25T07:16:09.151Z,78.90
2019-04-25T07:18:39.365Z,77.20
2019-04-25T07:21:09.587Z,77.20
2019-04-25T07:23:40.415Z,76.70
2019-04-25T07:26:34.240Z,74.40
2019-04-25T07:29:16.987Z,75.40
2019-04-25T07:32:06.549Z,74.80
2019-04-25T07:34:36.907Z,73.90
2019-04-25T07:37:07.352Z,72.50
2019-04-25T07:39:37.658Z,72.00
2019-04-25T07:42:07.894Z,71.70
2019-04-25T07:44:49.966Z,70.30
2019-04-25T07:47:10.433Z,69.80
2019-04-25T07:49:40.621Z,68.20
2019-04-25T07:52:11.603Z,68.30
2019-04-25T07:54:44.006Z,69.30
2019-04-25T07:57:14.506Z,70.90
2019-04-25T07:59:44.895Z,70.10
2019-04-25T08:02:15.176Z,69.70
2019-04-25T08:04:45.439Z,69.90
2019-04-25T08:07:16.012Z,68.70
2019-04-25T08:09:46.255Z,68.10
2019-04-25T08:12:16.591Z,66.50
2019-04-25T08:14:54.772Z,66.70
2019-04-25T08:17:44.067Z,67.30
2019-04-25T08:20:15.252Z,66.10
2019-04-25T08:22:55.824Z,67.50
2019-04-25T08:25:17.764Z,67.00
2019-04-25T08:27:48.080Z,64.90
2019-04-25T08:30:18.543Z,65.70
2019-04-25T08:32:49.094Z,65.90
2019-04-25T08:35:19.418Z,66.60
2019-04-25T08:37:49.732Z,65.80
2019-04-25T08:40:23.673Z,64.50
2019-04-25T08:42:54.052Z,63.40
2019-04-25T08:45:25.023Z,65.30
2019-04-25T08:47:55.281Z,63.50
2019-04-25T08:50:45.835Z,62.40
2019-04-25T08:53:16.145Z,62.70
2019-04-25T08:56:20.433Z,63.90
2019-04-25T08:59:15.490Z,63.20
2019-04-25T09:02:04.769Z,62.90
2019-04-25T09:04:54.123Z,61.00
2019-04-25T09:07:24.524Z,61.00
2019-04-25T09:09:54.793Z,60.60
2019-04-25T09:12:25.092Z,59.10
2019-04-25T09:14:55.354Z,59.20
2019-04-25T09:17:25.655Z,58.20
2019-04-25T09:19:56.133Z,58.10
2019-04-25T09:22:26.371Z,58.50
2019-04-25T09:24:56.767Z,59.20
2019-04-25T09:27:27.103Z,59.50
2019-04-25T09:29:57.525Z,59.70
2019-04-25T09:32:27.881Z,59.40
2019-04-25T09:34:58.258Z,59.30
2019-04-25T09:37:28.580Z,60.00
2019-04-25T09:40:09.077Z,59.30
2019-04-25T09:42:40.003Z,58.70
2019-04-25T09:45:37.619Z,58.70
2019-04-25T09:48:29.706Z,59.00
2019-04-25T09:51:20.621Z,59.00
2019-04-25T09:53:56.791Z,59.60
2019-04-25T09:56:33.798Z,59.50
2019-04-25T09:59:13.813Z,59.20
2019-04-25T10:01:48.237Z,59.50
2019-04-25T10:04:19.006Z,59.60
2019-04-25T10:06:49.421Z,59.70
2019-04-25T10:09:21.152Z,59.80
2019-04-25T10:11:51.569Z,60.00
2019-04-25T10:15:10.807Z,60.00
2019-04-25T10:17:41.207Z,59.50
2019-04-25T10:20:14.444Z,60.10
2019-04-25T10:22:44.541Z,59.80
2019-04-25T10:25:16.790Z,60.00
2019-04-25T10:27:49.217Z,60.50
2019-04-25T10:30:23.348Z,59.90
2019-04-25T10:32:53.181Z,60.80
2019-04-25T10:35:23.969Z,59.90
2019-04-25T10:37:55.018Z,59.90
2019-04-25T10:40:25.861Z,59.70
2019-04-25T10:42:56.197Z,60.10
2019-04-25T10:45:26.604Z,60.70
2019-04-25T10:47:56.982Z,61.20
2019-04-25T10:50:27.739Z,60.70
2019-04-25T10:52:58.091Z,60.20
2019-04-25T10:55:28.196Z,61.00
2019-04-25T10:57:58.425Z,61.10
2019-04-25T11:00:34.868Z,61.90
2019-04-25T11:03:30.613Z,62.10
2019-04-25T11:06:00.793Z,61.00
2019-04-25T11:08:31.000Z,59.80
2019-04-25T11:11:01.432Z,59.10
2019-04-25T11:13:33.897Z,57.60
2019-04-25T11:16:05.246Z,56.40
2019-04-25T11:18:35.537Z,56.90
2019-04-25T11:21:06.190Z,57.40
2019-04-25T11:23:36.383Z,56.90
2019-04-25T11:26:06.773Z,55.70
2019-04-25T11:28:38.257Z,56.60
2019-04-25T11:31:11.362Z,55.90
2019-04-25T11:33:41.680Z,54.80
2019-04-25T11:36:13.323Z,53.80
2019-04-25T11:38:55.108Z,52.80
2019-04-25T11:41:25.474Z,52.60
2019-04-25T11:43:56.781Z,53.00
2019-04-25T11:46:27.153Z,53.00
2019-04-25T11:48:57.338Z,52.60
2019-04-25T11:51:27.462Z,52.00
2019-04-25T11:53:57.742Z,50.70
2019-04-25T11:56:28.232Z,50.50
2019-04-25T11:58:58.450Z,50.10
2019-04-25T12:01:29.400Z,49.70
2019-04-25T12:03:59.625Z,50.00
2019-04-25T12:06:30.449Z,49.90
2019-04-25T12:09:04.014Z,49.80
2019-04-25T12:11:34.389Z,49.60
2019-04-25T12:14:04.495Z,49.10
2019-04-25T12:16:34.777Z,49.00
2019-04-25T12:19:05.188Z,48.70
2019-04-25T12:21:35.434Z,49.00
2019-04-25T12:24:06.137Z,49.30
2019-04-25T12:26:36.448Z,49.30
2019-04-25T12:29:06.752Z,49.30
2019-04-25T12:31:37.011Z,49.80
2019-04-25T12:34:07.371Z,49.90
2019-04-25T12:36:37.623Z,50.30
2019-04-25T12:39:09.809Z,50.90
2019-04-25T12:41:40.222Z,50.90
2019-04-25T12:44:28.362Z,51.20
2019-04-25T12:47:06.061Z,50.80
2019-04-25T12:49:36.373Z,51.00
2019-04-25T12:52:06.797Z,50.10
2019-04-25T12:54:37.016Z,50.20
2019-04-25T12:57:07.642Z,49.90
2019-04-25T12:59:38.005Z,49.60
2019-04-25T13:02:08.328Z,49.70
2019-04-25T13:04:38.637Z,49.40
2019-04-25T13:07:09.046Z,49.30
2019-04-25T13:09:39.268Z,47.90
2019-04-25T13:12:10.702Z,47.70
2019-04-25T13:14:40.969Z,46.60
2019-04-25T13:17:11.174Z,46.70
2019-04-25T13:19:41.396Z,46.80
2019-04-25T13:22:12.071Z,46.30
2019-04-25T13:24:42.286Z,46.20
2019-04-25T13:27:27.519Z,46.20
2019-04-25T13:30:06.520Z,47.00
2019-04-25T13:32:56.548Z,46.50
2019-04-25T13:35:43.277Z,46.70
2019-04-25T13:38:13.525Z,46.60
2019-04-25T13:40:43.560Z,46.10
2019-04-25T13:43:13.751Z,45.20
2019-04-25T13:45:43.889Z,45.10
2019-04-25T13:48:14.078Z,45.60
2019-04-25T13:50:44.457Z,45.00
2019-04-25T13:53:14.645Z,45.20
2019-04-25T13:55:44.763Z,44.90
2019-04-25T13:58:15.397Z,45.50
2019-04-25T14:00:46.912Z,44.50
2019-04-25T14:03:17.104Z,43.90
2019-04-25T14:05:47.384Z,44.10
2019-04-25T14:08:17.597Z,44.10
2019-04-25T14:10:47.863Z,44.20
2019-04-25T14:13:18.193Z,43.60
2019-04-25T14:16:10.148Z,42.90
2019-04-25T14:18:50.115Z,42.70
2019-04-25T14:21:20.822Z,43.00
2019-04-25T14:23:51.910Z,42.60
2019-04-25T14:26:22.977Z,42.90
2019-04-25T14:28:54.162Z,43.20
2019-04-25T14:31:40.526Z,43.10
2019-04-25T14:33:57.001Z,42.40
2019-04-25T14:36:28.574Z,43.30
2019-04-25T14:38:58.964Z,43.20
2019-04-25T14:41:30.185Z,42.80
2019-04-25T14:44:00.766Z,42.80
2019-04-25T14:46:32.153Z,42.90
2019-04-25T14:49:02.399Z,42.90
2019-04-25T14:51:49.341Z,43.00
2019-04-25T14:54:26.354Z,42.90
2019-04-25T14:57:04.476Z,42.80
2019-04-25T14:59:34.774Z,43.10
2019-04-25T15:02:05.076Z,42.90
2019-04-25T15:04:35.371Z,43.10
2019-04-25T15:07:05.477Z,43.00
2019-04-25T15:09:35.727Z,42.60
2019-04-25T15:12:06.313Z,42.50
2019-04-25T15:14:36.614Z,42.50
2019-04-25T15:17:06.861Z,42.60
2019-04-25T15:19:37.069Z,42.70
2019-04-25T15:22:07.368Z,42.80
2019-04-25T15:24:37.628Z,43.20
2019-04-25T15:27:07.908Z,43.40
2019-04-25T15:29:38.360Z,44.00
2019-04-25T15:32:10.265Z,44.00
2019-04-25T15:34:47.285Z,44.30
2019-04-25T15:37:30.511Z,44.60
2019-04-25T15:40:16.150Z,44.80
2019-04-25T15:43:20.734Z,45.10
2019-04-25T15:45:56.126Z,45.50
2019-04-25T15:48:26.452Z,45.80
2019-04-25T15:50:57.328Z,46.10
2019-04-25T15:53:28.600Z,46.30
2019-04-25T15:55:59.616Z,46.20
2019-04-25T15:58:29.894Z,46.50
2019-04-25T16:01:00.223Z,46.30
2019-04-25T16:03:30.837Z,45.90
2019-04-25T16:06:01.131Z,45.50
2019-04-25T16:08:32.997Z,45.40
2019-04-25T16:11:03.233Z,45.60
2019-04-25T16:13:34.362Z,45.80
2019-04-25T16:16:05.069Z,46.20
2019-04-25T16:18:36.253Z,46.60
2019-04-25T16:21:06.890Z,47.10
2019-04-25T16:23:37.119Z,47.30
2019-04-25T16:26:09.076Z,47.20
2019-04-25T16:28:39.428Z,47.10
2019-04-25T16:31:18.761Z,47.10
2019-04-25T16:33:49.152Z,47.30
2019-04-25T16:36:19.434Z,47.50
2019-04-25T16:38:49.706Z,47.80
2019-04-25T16:41:20.398Z,48.00
2019-04-25T16:43:54.597Z,48.50
2019-04-25T16:46:25.682Z,49.20
2019-04-25T16:48:55.878Z,49.50
2019-04-25T16:51:26.167Z,49.50
2019-04-25T16:53:56.357Z,50.30
2019-04-25T16:56:26.808Z,51.00
2019-04-25T16:58:57.078Z,50.60
2019-04-25T17:01:30.226Z,50.40
2019-04-25T17:04:02.251Z,50.10
2019-04-25T17:06:32.536Z,50.10
2019-04-25T17:09:02.836Z,49.90
2019-04-25T17:11:33.867Z,49.60
2019-04-25T17:14:26.604Z,49.10
2019-04-25T17:17:54.124Z,48.80
2019-04-25T17:20:26.769Z,48.50
2019-04-25T17:22:56.911Z,48.50
2019-04-25T17:25:27.093Z,48.50
2019-04-25T17:27:57.498Z,48.30
2019-04-25T17:30:29.335Z,48.20
2019-04-25T17:33:06.551Z,48.10
2019-04-25T17:35:58.423Z,48.40
2019-04-25T17:38:35.898Z,48.50
2019-04-25T17:41:06.253Z,48.60
2019-04-25T17:43:36.421Z,48.50
2019-04-25T17:46:10.866Z,48.30
2019-04-25T17:48:40.807Z,48.20
2019-04-25T17:51:11.064Z,48.50
2019-04-25T17:53:43.300Z,48.40
2019-04-25T17:56:13.542Z,48.30
2019-04-25T17:58:43.773Z,48.40
2019-04-25T18:01:17.408Z,48.40
2019-04-25T18:03:47.602Z,48.50
2019-04-25T18:06:17.860Z,48.70
2019-04-25T18:08:47.986Z,49.00
2019-04-25T18:11:18.318Z,49.60
2019-04-25T18:13:48.346Z,50.40
2019-04-25T18:16:29.664Z,51.40
2019-04-25T18:19:21.790Z,52.10
2019-04-25T18:21:53.383Z,52.30
2019-04-25T18:24:56.555Z,52.70
2019-04-25T18:27:33.340Z,52.80
2019-04-25T18:30:06.090Z,52.70
2019-04-25T18:32:37.402Z,52.80
2019-04-25T18:35:14.780Z,53.20
2019-04-25T18:38:02.543Z,53.30
2019-04-25T18:40:51.807Z,53.20
2019-04-25T18:43:27.818Z,53.20
2019-04-25T18:46:03.092Z,53.10
2019-04-25T18:48:33.501Z,53.40
2019-04-25T18:51:03.810Z,53.30
2019-04-25T18:53:51.552Z,53.30
2019-04-25T18:56:32.490Z,53.20
2019-04-25T18:59:24.877Z,53.40
2019-04-25T19:02:14.196Z,53.40
2019-04-25T19:05:06.246Z,53.40
2019-04-25T19:07:36.512Z,53.30
2019-04-25T19:10:08.412Z,53.60
2019-04-25T19:12:38.742Z,53.60
2019-04-25T19:15:10.533Z,53.50
2019-04-25T19:17:41.343Z,53.50
2019-04-25T19:20:11.822Z,53.40
2019-04-25T19:22:42.084Z,53.60
2019-04-25T19:25:12.764Z,53.60
2019-04-25T19:27:44.029Z,53.60
2019-04-25T19:30:16.922Z,53.70
2019-04-25T19:32:47.180Z,53.80
2019-04-25T19:35:17.499Z,53.80
2019-04-25T19:37:48.562Z,53.90
2019-04-25T19:40:30.440Z,54.00
2019-04-25T19:43:05.064Z,54.20
2019-04-25T19:45:35.349Z,54.10
2019-04-25T19:48:05.813Z,54.40
2019-04-25T19:50:36.100Z,54.70
2019-04-25T19:53:06.441Z,54.70
2019-04-25T19:55:36.747Z,55.00
2019-04-25T19:58:07.084Z,54.90
2019-04-25T20:00:37.377Z,55.60
2019-04-25T20:03:47.280Z,55.20
2019-04-25T20:06:13.771Z,55.20
2019-04-25T20:08:56.089Z,55.50
2019-04-25T20:11:34.016Z,55.50
2019-04-25T20:14:04.388Z,55.60
2019-04-25T20:16:44.347Z,55.80
2019-04-25T20:19:14.160Z,55.70
2019-04-25T20:21:44.841Z,56.00
2019-04-25T20:24:16.029Z,56.30
2019-04-25T20:26:46.363Z,56.40
2019-04-25T20:29:19.001Z,56.90
2019-04-25T20:31:52.940Z,57.00
2019-04-25T20:34:23.165Z,57.10
2019-04-25T20:36:55.761Z,57.50
2019-04-25T20:39:27.760Z,57.60
2019-04-25T20:41:58.032Z,57.80
2019-04-25T20:44:28.193Z,57.60
2019-04-25T20:46:58.548Z,58.00
2019-04-25T20:49:29.722Z,58.20
2019-04-25T20:52:00.042Z,57.90
2019-04-25T20:54:30.436Z,58.30
2019-04-25T20:57:00.677Z,58.30
2019-04-25T20:59:30.957Z,58.40
2019-04-25T21:02:01.274Z,58.90
2019-04-25T21:04:41.620Z,59.10
2019-04-25T21:07:13.018Z,59.10
2019-04-25T21:09:43.542Z,59.40
2019-04-25T21:12:13.867Z,59.60
2019-04-25T21:15:23.404Z,59.70
2019-04-25T21:18:10.620Z,59.90
2019-04-25T21:20:40.884Z,60.40
2019-04-25T21:23:11.285Z,60.80
2019-04-25T21:25:41.776Z,60.90
2019-04-25T21:28:12.077Z,61.00
2019-04-25T21:30:42.310Z,61.70
2019-04-25T21:33:12.551Z,62.50
2019-04-25T21:35:43.465Z,62.80
2019-04-25T21:38:15.341Z,63.20
2019-04-25T21:41:04.699Z,63.50
2019-04-25T21:43:39.455Z,63.60
2019-04-25T21:46:09.901Z,64.40
2019-04-25T21:48:40.337Z,65.00
2019-04-25T21:51:28.195Z,64.80
2019-04-25T21:53:59.280Z,65.20
2019-04-25T21:56:29.904Z,65.70
2019-04-25T21:59:00.365Z,65.20
2019-04-25T22:01:33.939Z,65.60
2019-04-25T22:04:05.207Z,66.40
2019-04-25T22:06:35.819Z,66.00
2019-04-25T22:09:12.044Z,66.50
2019-04-25T22:11:42.312Z,66.60
2019-04-25T22:14:13.001Z,67.50
2019-04-25T22:16:43.382Z,68.00
2019-04-25T22:19:13.853Z,68.20
2019-04-25T22:21:44.409Z,68.30
2019-04-25T22:24:16.365Z,68.80
2019-04-25T22:26:48.041Z,68.80
2019-04-25T22:29:18.348Z,69.30
2019-04-25T22:31:59.949Z,69.60
2019-04-25T22:34:52.409Z,70.10
2019-04-25T22:37:22.512Z,69.80
2019-04-25T22:39:52.794Z,70.10
2019-04-25T22:42:23.064Z,70.40
2019-04-25T22:44:53.339Z,70.50
2019-04-25T22:47:23.632Z,70.80
2019-04-25T22:49:53.933Z,71.00
2019-04-25T22:52:24.324Z,71.10
2019-04-25T22:54:54.583Z,71.40
2019-04-25T22:57:24.962Z,71.80
2019-04-25T22:59:55.216Z,71.30
2019-04-25T23:02:37.962Z,72.00
2019-04-25T23:05:33.334Z,72.10
2019-04-25T23:08:04.125Z,72.40
2019-04-25T23:10:34.423Z,72.60
2019-04-25T23:13:04.817Z,73.00
2019-04-25T23:15:35.080Z,73.30
2019-04-25T23:18:05.499Z,74.00
2019-04-25T23:20:35.710Z,74.10
2019-04-25T23:23:05.952Z,74.10
2019-04-25T23:25:57.095Z,74.20
2019-04-25T23:28:30.700Z,74.70
2019-04-25T23:31:12.569Z,75.30
2019-04-25T23:33:42.838Z,75.10
2019-04-25T23:36:13.422Z,75.60
2019-04-25T23:38:43.658Z,75.70
2019-04-25T23:41:16.092Z,75.60
2019-04-25T23:43:46.314Z,75.80
2019-04-25T23:46:16.516Z,76.30
2019-04-25T23:48:46.806Z,76.90
2019-04-25T23:51:17.463Z,77.10
2019-04-25T23:53:47.920Z,76.70
2019-04-25T23:56:18.145Z,76.80
2019-04-25T23:58:48.415Z,77.00
